createdAt,value
2018-07-09T00:00:12.174Z,17.30
2018-07-09T00:05:09.243Z,17.30
2018-07-09T00:07:38.171Z,17.20
2018-07-09T00:10:06.923Z,17.20
2018-07-09T00:12:35.596Z,17.20
2018-07-09T00:15:04.351Z,17.20
2018-07-09T00:17:33.122Z,17.20
2018-07-09T00:22:30.205Z,17.20
2018-07-09T00:24:59.995Z,17.20
2018-07-09T00:27:28.691Z,17.20
2018-07-09T00:29:57.570Z,17.20
2018-07-09T00:32:26.338Z,17.20
2018-07-09T00:34:55.057Z,17.10
2018-07-09T00:37:23.690Z,17.10
2018-07-09T00:39:52.472Z,17.10
2018-07-09T00:42:21.182Z,17.20
2018-07-09T00:44:49.912Z,17.20
2018-07-09T00:47:18.610Z,17.10
2018-07-09T00:49:47.391Z,17.10
2018-07-09T00:52:16.808Z,17.00
2018-07-09T00:57:14.827Z,17.00
2018-07-09T00:59:43.566Z,17.00
2018-07-09T01:02:14.861Z,16.90
2018-07-09T01:04:43.720Z,16.90
2018-07-09T01:07:12.425Z,16.80
2018-07-09T01:09:41.165Z,16.80
2018-07-09T01:12:13.247Z,16.70
2018-07-09T01:14:42.540Z,16.60
2018-07-09T01:17:11.181Z,16.50
2018-07-09T01:22:08.240Z,16.30
2018-07-09T01:24:36.881Z,16.30
2018-07-09T01:27:05.568Z,16.30
2018-07-09T01:29:34.294Z,16.40
2018-07-09T01:32:03.044Z,16.40
2018-07-09T01:34:31.791Z,16.30
2018-07-09T01:37:00.461Z,16.20
2018-07-09T01:39:29.110Z,16.10
2018-07-09T01:41:57.930Z,16.20
2018-07-09T01:44:26.609Z,16.00
2018-07-09T01:46:55.249Z,16.00
2018-07-09T01:49:24.179Z,16.00
2018-07-09T01:51:53.307Z,16.00
2018-07-09T01:54:21.951Z,16.00
2018-07-09T01:56:50.803Z,16.10
2018-07-09T01:59:19.472Z,16.10
2018-07-09T02:01:48.135Z,16.00
2018-07-09T02:04:16.912Z,15.90
2018-07-09T02:06:45.578Z,15.90
2018-07-09T02:09:14.260Z,15.80
2018-07-09T02:11:42.952Z,15.70
2018-07-09T02:14:11.652Z,15.60
2018-07-09T02:16:40.256Z,15.60
2018-07-09T02:19:08.958Z,15.60
2018-07-09T02:21:37.576Z,15.50
2018-07-09T02:24:06.401Z,15.60
2018-07-09T02:26:35.091Z,15.60
2018-07-09T02:29:03.748Z,15.50
2018-07-09T02:31:32.375Z,15.50
2018-07-09T02:34:01.091Z,15.50
2018-07-09T02:36:29.761Z,15.50
2018-07-09T02:38:58.443Z,15.40
2018-07-09T02:41:27.122Z,15.30
2018-07-09T02:43:55.792Z,15.30
2018-07-09T02:46:24.426Z,15.20
2018-07-09T02:48:53.086Z,15.20
2018-07-09T02:51:21.736Z,15.30
2018-07-09T02:53:50.405Z,15.30
2018-07-09T02:56:19.084Z,15.30
2018-07-09T02:58:47.746Z,15.30
2018-07-09T03:01:16.454Z,15.40
2018-07-09T03:03:45.093Z,15.40
2018-07-09T03:06:13.813Z,15.40
2018-07-09T03:08:43.129Z,15.40
2018-07-09T03:11:11.750Z,15.40
2018-07-09T03:13:40.474Z,15.40
2018-07-09T03:16:09.180Z,15.40
2018-07-09T03:18:37.846Z,15.40
2018-07-09T03:21:06.808Z,15.40
2018-07-09T03:23:35.534Z,15.40
2018-07-09T03:26:04.305Z,15.40
2018-07-09T03:31:01.248Z,15.30
2018-07-09T03:33:29.983Z,15.30
2018-07-09T03:35:58.633Z,15.40
2018-07-09T03:38:27.329Z,15.40
2018-07-09T03:40:56.003Z,15.40
2018-07-09T03:43:24.664Z,15.40
2018-07-09T03:45:53.323Z,15.40
2018-07-09T03:48:22.081Z,15.40
2018-07-09T03:50:50.861Z,15.40
2018-07-09T03:53:19.577Z,15.40
2018-07-09T03:55:48.281Z,15.40
2018-07-09T03:58:17.011Z,15.40
2018-07-09T04:00:45.623Z,15.40
2018-07-09T04:03:14.328Z,15.40
2018-07-09T04:05:43.038Z,15.40
2018-07-09T04:08:11.698Z,15.40
2018-07-09T04:10:40.390Z,15.40
2018-07-09T04:13:09.090Z,15.30
2018-07-09T04:15:37.680Z,15.20
2018-07-09T04:18:06.442Z,15.20
2018-07-09T04:20:35.194Z,15.20
2018-07-09T04:23:03.840Z,15.20
2018-07-09T04:25:32.509Z,15.20
2018-07-09T04:28:01.453Z,15.30
2018-07-09T04:30:30.290Z,15.40
2018-07-09T04:32:59.017Z,15.40
2018-07-09T04:35:27.754Z,15.50
2018-07-09T04:37:56.746Z,15.60
2018-07-09T04:40:25.355Z,15.70
2018-07-09T04:42:54.049Z,15.80
2018-07-09T04:45:22.710Z,15.80
2018-07-09T04:47:51.430Z,15.90
2018-07-09T04:50:20.080Z,16.00
2018-07-09T04:52:48.720Z,16.00
2018-07-09T04:55:17.474Z,16.00
2018-07-09T04:57:46.158Z,16.00
2018-07-09T05:00:14.884Z,16.00
2018-07-09T05:02:43.582Z,16.00
2018-07-09T05:05:12.303Z,15.90
2018-07-09T05:07:40.999Z,16.00
2018-07-09T05:10:09.806Z,16.00
2018-07-09T05:15:06.953Z,16.20
2018-07-09T05:17:35.629Z,16.20
2018-07-09T05:20:04.399Z,16.30
2018-07-09T05:22:33.075Z,16.40
2018-07-09T05:25:01.744Z,16.50
2018-07-09T05:27:30.472Z,16.70
2018-07-09T05:29:59.108Z,16.80
2018-07-09T05:32:27.797Z,17.00
2018-07-09T05:34:56.536Z,17.20
2018-07-09T05:37:25.291Z,17.30
2018-07-09T05:39:54.123Z,17.50
2018-07-09T05:42:22.801Z,17.60
2018-07-09T05:44:51.598Z,17.80
2018-07-09T05:47:20.250Z,18.00
2018-07-09T05:49:49.582Z,18.20
2018-07-09T05:52:18.306Z,18.30
2018-07-09T05:54:47.193Z,18.30
2018-07-09T05:57:15.863Z,18.50
2018-07-09T05:59:45.065Z,18.50
2018-07-09T06:02:13.766Z,18.50
2018-07-09T06:04:42.501Z,18.60
2018-07-09T06:07:11.177Z,18.60
2018-07-09T06:09:39.853Z,18.40
2018-07-09T06:12:08.665Z,18.50
2018-07-09T06:14:37.447Z,18.50
2018-07-09T06:17:06.503Z,18.60
2018-07-09T06:19:35.349Z,18.70
2018-07-09T06:22:04.075Z,18.70
2018-07-09T06:24:33.066Z,18.90
2018-07-09T06:27:03.168Z,19.00
2018-07-09T06:29:31.890Z,19.20
2018-07-09T06:32:00.648Z,19.10
2018-07-09T06:34:29.406Z,19.00
2018-07-09T06:36:58.782Z,19.10
2018-07-09T06:39:27.548Z,19.30
2018-07-09T06:41:56.318Z,19.50
2018-07-09T06:44:25.061Z,19.60
2018-07-09T06:46:53.754Z,19.70
2018-07-09T06:49:22.731Z,19.70
2018-07-09T06:51:51.445Z,19.80
2018-07-09T06:54:20.189Z,19.80
2018-07-09T06:56:48.962Z,20.00
2018-07-09T06:59:18.720Z,20.00
2018-07-09T07:01:47.689Z,20.10
2018-07-09T07:04:16.439Z,20.20
2018-07-09T07:06:45.561Z,20.20
2018-07-09T07:09:14.421Z,20.30
2018-07-09T07:11:43.056Z,20.50
2018-07-09T07:14:11.716Z,20.40
2018-07-09T07:16:40.482Z,20.30
2018-07-09T07:19:09.132Z,20.50
2018-07-09T07:21:37.852Z,20.50
2018-07-09T07:24:07.107Z,20.80
2018-07-09T07:26:35.884Z,21.00
2018-07-09T07:29:04.599Z,21.20
2018-07-09T07:31:33.596Z,21.30
2018-07-09T07:34:02.311Z,21.40
2018-07-09T07:36:31.151Z,21.60
2018-07-09T07:38:59.812Z,21.80
2018-07-09T07:43:56.834Z,22.00
2018-07-09T07:46:25.588Z,22.20
2018-07-09T07:51:25.575Z,22.10
2018-07-09T07:53:54.322Z,22.10
2018-07-09T07:56:23.162Z,22.30
2018-07-09T07:58:51.988Z,22.40
2018-07-09T08:01:20.665Z,22.60
2018-07-09T08:03:49.865Z,22.70
2018-07-09T08:06:18.791Z,22.50
2018-07-09T08:08:48.327Z,22.60
2018-07-09T08:11:18.729Z,22.70
2018-07-09T08:13:47.587Z,22.60
2018-07-09T08:16:16.825Z,22.80
2018-07-09T08:18:45.611Z,22.70
2018-07-09T08:21:14.369Z,22.80
2018-07-09T08:23:43.120Z,23.00
2018-07-09T08:26:11.973Z,23.20
2018-07-09T08:31:09.191Z,23.40
2018-07-09T08:33:37.957Z,23.50
2018-07-09T08:36:06.671Z,23.60
2018-07-09T08:38:35.476Z,23.60
2018-07-09T08:41:05.206Z,23.20
2018-07-09T08:43:34.075Z,23.40
2018-07-09T08:46:02.717Z,23.60
2018-07-09T08:51:00.078Z,24.00
2018-07-09T08:53:29.325Z,24.30
2018-07-09T08:55:58.980Z,24.50
2018-07-09T08:58:27.789Z,24.50
2018-07-09T09:00:56.640Z,24.50
2018-07-09T09:03:25.453Z,24.40
2018-07-09T09:05:54.352Z,24.50
2018-07-09T09:08:23.141Z,24.50
2018-07-09T09:10:51.961Z,24.70
2018-07-09T09:13:21.247Z,24.70
2018-07-09T09:15:50.145Z,24.90
2018-07-09T09:18:18.995Z,24.90
2018-07-09T09:20:48.493Z,24.90
2018-07-09T09:23:17.592Z,24.70
2018-07-09T09:25:46.990Z,24.70
2018-07-09T09:28:16.514Z,24.80
2018-07-09T09:30:45.357Z,24.80
2018-07-09T09:33:14.160Z,24.60
2018-07-09T09:35:43.282Z,24.50
2018-07-09T09:38:12.151Z,24.50
2018-07-09T09:40:41.120Z,24.70
2018-07-09T09:43:09.905Z,25.20
2018-07-09T09:45:38.710Z,25.30
2018-07-09T09:48:07.552Z,25.50
2018-07-09T09:50:36.384Z,25.40
2018-07-09T09:53:05.157Z,25.50
2018-07-09T09:55:33.918Z,25.20
2018-07-09T09:58:02.819Z,24.90
2018-07-09T10:00:36.945Z,25.10
2018-07-09T10:03:05.852Z,25.50
2018-07-09T10:05:35.255Z,25.60
2018-07-09T10:08:04.091Z,25.70
2018-07-09T10:10:32.827Z,25.70
2018-07-09T10:13:01.561Z,25.50
2018-07-09T10:15:30.379Z,25.50
2018-07-09T10:17:59.284Z,25.40
2018-07-09T10:20:28.049Z,25.20
2018-07-09T10:22:56.973Z,25.20
2018-07-09T10:25:25.836Z,25.30
2018-07-09T10:27:54.630Z,25.90
2018-07-09T10:30:23.447Z,26.00
2018-07-09T10:32:52.160Z,25.90
2018-07-09T10:35:20.912Z,26.00
2018-07-09T10:37:49.681Z,26.50
2018-07-09T10:40:18.587Z,26.70
2018-07-09T10:42:47.455Z,26.50
2018-07-09T10:45:16.152Z,26.00
2018-07-09T10:47:44.873Z,26.10
2018-07-09T10:50:13.723Z,26.20
2018-07-09T10:52:42.476Z,26.20
2018-07-09T10:55:11.203Z,26.10
2018-07-09T10:57:39.972Z,26.00
2018-07-09T11:00:08.848Z,26.10
2018-07-09T11:02:37.660Z,26.40
2018-07-09T11:05:06.620Z,26.30
2018-07-09T11:07:35.563Z,26.50
2018-07-09T11:10:04.348Z,26.70
2018-07-09T11:12:33.099Z,26.70
2018-07-09T11:15:02.403Z,26.80
2018-07-09T11:17:31.100Z,26.80
2018-07-09T11:19:59.849Z,26.90
2018-07-09T11:22:28.689Z,26.90
2018-07-09T11:24:58.088Z,27.00
2018-07-09T11:27:26.882Z,26.90
2018-07-09T11:29:55.709Z,26.60
2018-07-09T11:32:24.487Z,26.80
2018-07-09T11:34:53.255Z,26.90
2018-07-09T11:37:21.973Z,26.90
2018-07-09T11:39:50.796Z,27.00
2018-07-09T11:42:19.604Z,26.90
2018-07-09T11:44:48.413Z,26.90
2018-07-09T11:47:17.422Z,26.90
2018-07-09T11:49:46.296Z,26.70
2018-07-09T11:52:15.092Z,26.70
2018-07-09T11:54:43.785Z,26.40
2018-07-09T11:57:12.585Z,26.50
2018-07-09T11:59:41.439Z,26.10
2018-07-09T12:02:10.295Z,25.80
2018-07-09T12:04:39.049Z,25.90
2018-07-09T12:07:07.859Z,25.90
2018-07-09T12:09:36.549Z,26.40
2018-07-09T12:12:05.341Z,26.70
2018-07-09T12:14:34.046Z,26.50
2018-07-09T12:17:02.748Z,27.00
2018-07-09T12:19:31.519Z,27.30
2018-07-09T12:22:00.256Z,27.60
2018-07-09T12:24:29.008Z,28.00
2018-07-09T12:26:57.775Z,28.00
2018-07-09T12:29:27.315Z,27.60
2018-07-09T12:31:56.153Z,27.10
2018-07-09T12:34:24.828Z,26.80
2018-07-09T12:36:53.661Z,26.50
2018-07-09T12:39:22.369Z,26.30
2018-07-09T12:41:51.072Z,26.20
2018-07-09T12:44:19.888Z,26.10
2018-07-09T12:46:48.639Z,26.20
2018-07-09T12:49:17.352Z,26.10
2018-07-09T12:51:46.052Z,25.80
2018-07-09T12:56:43.425Z,25.50
2018-07-09T12:59:12.240Z,25.40
2018-07-09T13:01:41.018Z,25.00
2018-07-09T13:04:09.817Z,24.60
2018-07-09T13:06:38.576Z,24.70
2018-07-09T13:09:07.536Z,24.90
2018-07-09T13:11:36.358Z,25.00
2018-07-09T13:14:05.194Z,25.20
2018-07-09T13:16:33.910Z,25.40
2018-07-09T13:19:02.687Z,25.60
2018-07-09T13:21:31.580Z,25.60
2018-07-09T13:24:00.334Z,25.80
2018-07-09T13:26:29.415Z,25.80
2018-07-09T13:28:58.665Z,25.50
2018-07-09T13:31:27.611Z,25.10
2018-07-09T13:33:56.411Z,25.00
2018-07-09T13:36:25.266Z,25.00
2018-07-09T13:38:54.020Z,24.80
2018-07-09T13:43:51.452Z,24.80
2018-07-09T13:46:20.311Z,24.80
2018-07-09T13:48:49.087Z,24.30
2018-07-09T13:51:17.859Z,24.20
2018-07-09T13:53:46.692Z,24.20
2018-07-09T13:56:15.491Z,24.20
2018-07-09T13:58:44.204Z,24.10
2018-07-09T14:01:12.967Z,24.00
2018-07-09T14:03:41.662Z,24.00
2018-07-09T14:06:10.462Z,23.90
2018-07-09T14:08:39.129Z,23.80
2018-07-09T14:11:07.921Z,23.80
2018-07-09T14:13:36.648Z,24.00
2018-07-09T14:16:05.484Z,24.10
2018-07-09T14:18:34.942Z,24.40
2018-07-09T14:21:04.197Z,24.70
2018-07-09T14:23:32.983Z,25.20
2018-07-09T14:26:01.684Z,25.80
2018-07-09T14:28:30.943Z,25.90
2018-07-09T14:31:00.332Z,26.10
2018-07-09T14:33:29.300Z,26.30
2018-07-09T14:38:26.709Z,26.30
2018-07-09T14:40:55.555Z,26.50
2018-07-09T14:43:24.424Z,26.50
2018-07-09T14:45:53.205Z,26.80
2018-07-09T14:48:21.967Z,27.10
2018-07-09T14:50:50.711Z,27.20
2018-07-09T14:53:19.491Z,27.10
2018-07-09T14:55:48.331Z,26.90
2018-07-09T14:58:17.133Z,26.70
2018-07-09T15:00:45.921Z,26.50
2018-07-09T15:03:14.818Z,26.30
2018-07-09T15:05:43.609Z,26.00
2018-07-09T15:08:12.481Z,25.90
2018-07-09T15:10:41.308Z,25.70
2018-07-09T15:13:10.153Z,25.50
2018-07-09T15:15:38.843Z,25.30
2018-07-09T15:18:07.659Z,25.00
2018-07-09T15:23:04.735Z,24.60
2018-07-09T15:25:33.514Z,24.60
2018-07-09T15:28:02.344Z,24.50
2018-07-09T15:30:31.185Z,24.50
2018-07-09T15:32:59.943Z,24.50
2018-07-09T15:35:28.738Z,24.40
2018-07-09T15:37:57.480Z,24.20
2018-07-09T15:40:26.320Z,24.30
2018-07-09T15:42:55.498Z,24.30
2018-07-09T15:45:24.294Z,24.10
2018-07-09T15:47:53.021Z,24.30
2018-07-09T15:50:21.802Z,24.40
2018-07-09T15:52:51.317Z,24.50
2018-07-09T15:55:20.035Z,24.50
2018-07-09T15:57:48.787Z,24.50
2018-07-09T16:00:17.569Z,24.40
2018-07-09T16:02:46.369Z,24.40
2018-07-09T16:05:15.110Z,24.60
2018-07-09T16:07:44.280Z,24.90
2018-07-09T16:10:13.262Z,25.00
2018-07-09T16:12:42.090Z,25.00
2018-07-09T16:15:10.776Z,25.10
2018-07-09T16:17:39.693Z,25.00
2018-07-09T16:20:08.428Z,24.70
2018-07-09T16:22:37.187Z,24.30
2018-07-09T16:25:05.996Z,23.80
2018-07-09T16:30:03.093Z,23.80
2018-07-09T16:32:31.934Z,23.60
2018-07-09T16:35:00.667Z,23.70
2018-07-09T16:37:29.399Z,23.70
2018-07-09T16:39:58.071Z,23.50
2018-07-09T16:42:26.824Z,23.40
2018-07-09T16:44:55.505Z,23.40
2018-07-09T16:47:24.187Z,23.40
2018-07-09T16:49:52.861Z,23.30
2018-07-09T16:52:21.575Z,23.40
2018-07-09T16:54:50.302Z,23.50
2018-07-09T16:57:19.004Z,23.20
2018-07-09T16:59:47.869Z,23.30
2018-07-09T17:02:17.004Z,23.20
2018-07-09T17:04:45.698Z,23.10
2018-07-09T17:07:14.468Z,23.20
2018-07-09T17:09:43.152Z,23.20
2018-07-09T17:12:11.896Z,23.20
2018-07-09T17:14:40.658Z,23.30
2018-07-09T17:17:09.411Z,23.40
2018-07-09T17:19:38.177Z,23.50
2018-07-09T17:22:06.995Z,23.50
2018-07-09T17:24:35.738Z,23.40
2018-07-09T17:27:04.701Z,23.20
2018-07-09T17:29:33.375Z,22.50
2018-07-09T17:32:02.084Z,22.20
2018-07-09T17:34:31.165Z,22.00
2018-07-09T17:36:59.819Z,21.70
2018-07-09T17:39:28.448Z,21.80
2018-07-09T17:41:57.659Z,21.80
2018-07-09T17:44:26.520Z,21.80
2018-07-09T17:46:55.433Z,22.00
2018-07-09T17:49:24.114Z,21.90
2018-07-09T17:51:53.128Z,21.70
2018-07-09T17:54:21.900Z,21.70
2018-07-09T17:56:50.554Z,21.80
2018-07-09T17:59:19.315Z,21.90
2018-07-09T18:01:48.081Z,21.60
2018-07-09T18:04:16.825Z,21.50
2018-07-09T18:06:45.519Z,21.50
2018-07-09T18:09:14.179Z,21.30
2018-07-09T18:11:42.882Z,21.20
2018-07-09T18:14:11.583Z,21.10
2018-07-09T18:16:40.266Z,20.90
2018-07-09T18:19:09.151Z,20.80
2018-07-09T18:21:37.775Z,20.90
2018-07-09T18:24:06.525Z,20.80
2018-07-09T18:26:35.588Z,20.80
2018-07-09T18:31:32.678Z,20.70
2018-07-09T18:34:01.406Z,20.60
2018-07-09T18:36:30.120Z,20.50
2018-07-09T18:38:58.849Z,20.20
2018-07-09T18:41:27.658Z,20.30
2018-07-09T18:43:56.344Z,20.30
2018-07-09T18:46:25.107Z,20.20
2018-07-09T18:48:53.851Z,20.30
2018-07-09T18:51:22.647Z,20.20
2018-07-09T18:53:51.447Z,20.10
2018-07-09T18:56:20.333Z,20.00
2018-07-09T18:58:49.054Z,20.00
2018-07-09T19:01:17.786Z,20.00
2018-07-09T19:03:46.574Z,20.00
2018-07-09T19:07:27.273Z,19.90
2018-07-09T19:09:56.024Z,19.70
2018-07-09T19:12:25.130Z,19.40
2018-07-09T19:14:53.882Z,19.50
2018-07-09T19:18:02.186Z,19.40
2018-07-09T19:20:42.215Z,19.30
2018-07-09T19:23:10.164Z,19.40
2018-07-09T19:25:38.321Z,19.40
2018-07-09T19:28:07.117Z,19.40
2018-07-09T19:30:34.956Z,19.20
2018-07-09T19:33:02.500Z,19.30
2018-07-09T19:35:30.024Z,19.30
2018-07-09T19:37:57.789Z,19.30
2018-07-09T19:40:24.996Z,19.20
2018-07-09T19:42:52.475Z,19.20
2018-07-09T19:45:19.969Z,19.30
2018-07-09T19:47:47.513Z,19.20
2018-07-09T19:50:14.983Z,19.10
2018-07-09T20:05:39.930Z,18.90
2018-07-09T20:08:08.112Z,18.70
2018-07-09T20:11:41.270Z,18.60
2018-07-09T20:14:13.857Z,18.50
2018-07-09T20:16:46.714Z,18.50
2018-07-09T20:19:14.140Z,18.40
2018-07-09T20:21:41.597Z,18.40
2018-07-09T20:24:09.187Z,18.50
2018-07-09T20:26:36.741Z,18.60
2018-07-09T20:29:04.192Z,18.60
2018-07-09T20:31:31.669Z,18.70
2018-07-09T20:33:59.187Z,18.70
2018-07-09T20:36:26.614Z,18.50
2018-07-09T20:38:54.043Z,18.50
2018-07-09T20:41:21.510Z,18.40
2018-07-09T20:43:49.864Z,18.40
2018-07-09T20:46:17.310Z,18.40
2018-07-09T20:48:44.780Z,18.40
2018-07-09T20:51:12.220Z,18.40
2018-07-09T20:53:39.668Z,18.30
2018-07-09T20:56:07.133Z,18.30
2018-07-09T20:58:34.635Z,18.30
2018-07-09T21:01:02.136Z,18.40
2018-07-09T21:03:29.571Z,18.40
2018-07-09T21:05:57.044Z,18.40
2018-07-09T21:08:24.605Z,18.50
2018-07-09T21:10:52.439Z,18.50
2018-07-09T21:13:20.757Z,18.40
2018-07-09T21:15:50.504Z,18.40
2018-07-09T21:20:46.125Z,18.30
2018-07-09T21:23:13.568Z,18.20
2018-07-09T21:25:41.024Z,18.20
2018-07-09T21:28:09.316Z,18.20
2018-07-09T21:30:36.814Z,18.10
2018-07-09T21:35:32.847Z,18.00
2018-07-09T21:38:02.128Z,18.00
2018-07-09T21:40:29.555Z,17.90
2018-07-09T21:42:57.019Z,17.80
2018-07-09T21:45:24.503Z,17.70
2018-07-09T21:47:59.217Z,17.70
2018-07-09T21:50:19.411Z,17.70
2018-07-09T21:52:46.861Z,17.60
2018-07-09T21:55:14.353Z,17.60
2018-07-09T21:57:41.907Z,17.60
2018-07-09T22:00:09.350Z,17.50
2018-07-09T22:02:36.870Z,17.40
2018-07-09T22:05:04.331Z,17.40
2018-07-09T22:07:31.810Z,17.30
2018-07-09T22:09:59.240Z,17.30
2018-07-09T22:12:26.766Z,17.30
2018-07-09T22:14:54.211Z,17.30
2018-07-09T22:17:21.659Z,17.20
2018-07-09T22:19:49.169Z,17.30
2018-07-09T22:22:16.642Z,17.20
2018-07-09T22:24:44.135Z,17.20
2018-07-09T22:27:11.668Z,17.20
2018-07-09T22:29:39.275Z,17.10
2018-07-09T22:32:08.031Z,17.10
2018-07-09T22:34:36.779Z,17.10
2018-07-09T22:37:05.517Z,17.10
2018-07-09T22:39:34.185Z,17.10
2018-07-09T22:42:03.049Z,17.10
2018-07-09T22:44:31.759Z,17.00
2018-07-09T22:47:00.517Z,17.00
2018-07-09T22:49:29.186Z,17.00
2018-07-09T22:51:57.833Z,17.00
2018-07-09T22:54:26.576Z,17.00
2018-07-09T22:56:55.271Z,17.00
2018-07-09T22:59:23.992Z,17.10
2018-07-09T23:01:52.674Z,17.10
2018-07-09T23:04:21.418Z,17.00
2018-07-09T23:06:50.117Z,17.00
2018-07-09T23:10:10.137Z,17.00
